Green Pond, New Jersey
Current Conditions -  °F | °C
As of 12:53 PM on Thursday 27 Nov 2014 (Local Time) from KFWN Reporting Station
Light Snow Light Snow  
Wind Chill: 34°   Ceiling: 3200
Heat Index: 34°   Visibility: 7mi
Dew Point: 28°   Wind: 3mph
Humidity: 79%   Direction: 310°NW
Pressure: 29.98"   Gusts: NA
Location:  41.058°N, 74.4257°W
Report Text: KFWN 271753Z AUTO 31003KT 7SM -SN SCT016 OVC032 01/M02 A2998 RMK AO2 SLP155 P0001 60003 T00111022 10011 20000 56006
Loading
Personal Weather Stations






























Interactive Weather Map New forecast layout! Learn more

10-Day Weather Forecast

Advertisements
Track Severe Weather on mobile